createdAt,value
2023-02-16T00:00:50.548Z,6.92
2023-02-16T00:03:22.591Z,6.93
2023-02-16T00:05:53.671Z,6.93
2023-02-16T00:08:26.459Z,6.90
2023-02-16T00:11:08.640Z,6.87
2023-02-16T00:13:48.125Z,6.86
2023-02-16T00:16:19.839Z,6.84
2023-02-16T00:18:51.319Z,6.78
2023-02-16T00:21:22.348Z,6.78
2023-02-16T00:23:55.084Z,6.76
2023-02-16T00:26:27.689Z,6.75
2023-02-16T00:29:01.269Z,6.74
2023-02-16T00:31:34.642Z,6.70
2023-02-16T00:34:18.388Z,6.66
2023-02-16T00:36:48.143Z,6.64
2023-02-16T00:39:20.593Z,6.62
2023-02-16T00:41:54.345Z,6.59
2023-02-16T00:44:31.092Z,6.57
2023-02-16T00:47:03.630Z,6.58
2023-02-16T00:49:33.610Z,6.55
2023-02-16T00:52:03.945Z,6.55
2023-02-16T00:54:36.384Z,6.54
2023-02-16T00:57:06.450Z,6.56
2023-02-16T00:59:36.282Z,6.58
2023-02-16T01:02:06.067Z,6.60
2023-02-16T01:04:35.953Z,6.61
2023-02-16T01:07:18.288Z,6.61
2023-02-16T01:10:03.114Z,6.62
2023-02-16T01:12:32.994Z,6.60
2023-02-16T01:15:02.796Z,6.59
2023-02-16T01:17:32.612Z,6.56
2023-02-16T01:20:02.362Z,6.56
2023-02-16T01:22:33.586Z,6.54
2023-02-16T01:25:05.955Z,6.52
2023-02-16T01:27:36.671Z,6.50
2023-02-16T01:30:07.350Z,6.46
2023-02-16T01:32:37.135Z,6.43
2023-02-16T01:35:07.659Z,6.40
2023-02-16T01:37:37.615Z,6.37
2023-02-16T01:40:22.328Z,6.33
2023-02-16T01:42:55.022Z,6.30
2023-02-16T01:45:30.448Z,6.25
2023-02-16T01:48:05.489Z,6.24
2023-02-16T01:50:46.037Z,6.18
2023-02-16T01:53:23.815Z,6.17
2023-02-16T01:56:00.697Z,6.15
2023-02-16T01:58:39.457Z,6.13
2023-02-16T02:01:47.850Z,6.06
2023-02-16T02:04:44.826Z,6.07
2023-02-16T02:07:24.295Z,6.09
2023-02-16T02:10:03.180Z,6.07
2023-02-16T02:12:43.909Z,6.04
2023-02-16T02:15:15.543Z,6.02
2023-02-16T02:17:45.330Z,6.01
2023-02-16T02:20:23.336Z,6.00
2023-02-16T02:23:34.265Z,5.97
2023-02-16T02:26:39.340Z,5.93
2023-02-16T02:29:25.942Z,5.95
2023-02-16T02:32:06.203Z,5.99
2023-02-16T02:34:50.233Z,5.99
2023-02-16T02:37:28.417Z,6.02
2023-02-16T02:40:08.201Z,6.04
2023-02-16T02:42:44.683Z,6.00
2023-02-16T02:45:24.328Z,6.00
2023-02-16T02:47:54.115Z,6.01
2023-02-16T02:51:08.494Z,5.98
2023-02-16T02:53:42.360Z,5.95
2023-02-16T02:56:27.183Z,5.95
2023-02-16T02:59:17.625Z,5.88
2023-02-16T03:01:54.645Z,5.87
2023-02-16T03:04:31.140Z,5.87
2023-02-16T03:07:04.580Z,5.87
2023-02-16T03:09:34.547Z,5.86
2023-02-16T03:12:18.646Z,5.87
2023-02-16T03:14:53.780Z,5.85
2023-02-16T03:17:46.785Z,5.87
2023-02-16T03:20:30.670Z,5.88
2023-02-16T03:23:13.720Z,5.90
2023-02-16T03:25:56.173Z,5.87
2023-02-16T03:28:41.154Z,5.89
2023-02-16T03:31:14.706Z,5.89
2023-02-16T03:33:47.961Z,5.91
2023-02-16T03:36:17.831Z,5.90
2023-02-16T03:38:47.625Z,5.91
2023-02-16T03:41:17.421Z,5.90
2023-02-16T03:43:47.474Z,5.88
2023-02-16T03:46:17.407Z,5.87
2023-02-16T03:48:49.810Z,5.84
2023-02-16T03:51:19.583Z,5.83
2023-02-16T03:53:50.284Z,5.80
2023-02-16T03:56:20.174Z,5.80
2023-02-16T03:58:49.938Z,5.79
2023-02-16T04:01:19.841Z,5.77
2023-02-16T04:03:52.346Z,5.75
2023-02-16T04:06:22.462Z,5.74
2023-02-16T04:08:52.313Z,5.77
2023-02-16T04:11:43.078Z,5.78
2023-02-16T04:14:13.272Z,5.78
2023-02-16T04:16:43.054Z,5.83
2023-02-16T04:19:15.463Z,5.86
2023-02-16T04:21:45.806Z,5.89
2023-02-16T04:24:15.613Z,5.89
2023-02-16T04:26:46.996Z,5.87
2023-02-16T04:29:16.734Z,5.87
2023-02-16T04:31:46.706Z,5.86
2023-02-16T04:34:19.268Z,5.83
2023-02-16T04:36:49.089Z,5.78
2023-02-16T04:39:18.905Z,5.75
2023-02-16T04:41:48.670Z,5.71
2023-02-16T04:44:18.464Z,5.70
2023-02-16T04:46:48.264Z,5.64
2023-02-16T04:49:21.194Z,5.60
2023-02-16T04:51:51.046Z,5.55
2023-02-16T04:54:21.281Z,5.46
2023-02-16T04:56:51.412Z,5.44
2023-02-16T04:59:21.189Z,5.45
2023-02-16T05:01:51.320Z,5.46
2023-02-16T05:04:23.830Z,5.45
2023-02-16T05:06:53.792Z,5.39
2023-02-16T05:09:23.778Z,5.37
2023-02-16T05:12:05.985Z,5.36
2023-02-16T05:14:47.776Z,5.36
2023-02-16T05:17:19.309Z,5.35
2023-02-16T05:19:54.673Z,5.32
2023-02-16T05:22:24.784Z,5.34
2023-02-16T05:24:55.062Z,5.35
2023-02-16T05:27:27.250Z,5.36
2023-02-16T05:29:58.194Z,5.36
2023-02-16T05:32:28.626Z,5.34
2023-02-16T05:35:01.043Z,5.32
2023-02-16T05:37:30.837Z,5.30
2023-02-16T05:40:00.634Z,5.27
2023-02-16T05:42:30.406Z,5.27
2023-02-16T05:45:00.178Z,5.25
2023-02-16T05:47:29.992Z,5.22
2023-02-16T05:50:02.577Z,5.24
2023-02-16T05:52:32.327Z,5.30
2023-02-16T05:55:02.089Z,5.32
2023-02-16T05:57:35.067Z,5.35
2023-02-16T06:00:05.570Z,5.40
2023-02-16T06:02:35.540Z,5.42
2023-02-16T06:05:08.388Z,5.41
2023-02-16T06:07:38.556Z,5.43
2023-02-16T06:10:09.739Z,5.46
2023-02-16T06:12:39.555Z,5.46
2023-02-16T06:15:09.741Z,5.46
2023-02-16T06:17:39.652Z,5.47
2023-02-16T06:20:13.584Z,5.48
2023-02-16T06:22:43.367Z,5.48
2023-02-16T06:25:13.154Z,5.48
2023-02-16T06:27:43.051Z,5.51
2023-02-16T06:30:13.621Z,5.52
2023-02-16T06:32:43.746Z,5.54
2023-02-16T06:35:16.099Z,5.56
2023-02-16T06:37:46.152Z,5.57
2023-02-16T06:40:18.297Z,5.57
2023-02-16T06:42:48.301Z,5.59
2023-02-16T06:45:18.132Z,5.61
2023-02-16T06:47:48.154Z,5.63
2023-02-16T06:50:20.759Z,5.65
2023-02-16T06:52:50.553Z,5.68
2023-02-16T06:55:20.433Z,5.69
2023-02-16T06:57:50.256Z,5.71
2023-02-16T07:00:20.721Z,5.74
2023-02-16T07:02:51.429Z,5.75
2023-02-16T07:05:23.911Z,5.77
2023-02-16T07:07:53.876Z,5.78
2023-02-16T07:10:23.987Z,5.80
2023-02-16T07:12:53.810Z,5.82
2023-02-16T07:15:23.715Z,5.85
2023-02-16T07:17:53.495Z,5.86
2023-02-16T07:20:27.122Z,5.89
2023-02-16T07:22:56.872Z,5.90
2023-02-16T07:25:27.957Z,5.92
2023-02-16T07:27:57.732Z,5.95
2023-02-16T07:30:27.542Z,5.97
2023-02-16T07:32:57.921Z,5.98
2023-02-16T07:35:30.332Z,6.02
2023-02-16T07:38:00.154Z,6.06
2023-02-16T07:40:30.436Z,6.12
2023-02-16T07:43:02.448Z,6.18
2023-02-16T07:45:33.261Z,6.23
2023-02-16T07:48:03.112Z,6.27
2023-02-16T07:50:35.573Z,6.32
2023-02-16T07:53:05.652Z,6.39
2023-02-16T07:55:35.412Z,6.43
2023-02-16T07:58:05.207Z,6.48
2023-02-16T08:00:34.918Z,6.51
2023-02-16T08:03:05.132Z,6.54
2023-02-16T08:05:37.901Z,6.57
2023-02-16T08:08:07.847Z,6.60
2023-02-16T08:10:37.591Z,6.65
2023-02-16T08:13:07.438Z,6.68
2023-02-16T08:15:37.211Z,6.65
2023-02-16T08:18:07.006Z,6.70
2023-02-16T08:20:57.557Z,6.71
2023-02-16T08:23:29.824Z,6.71
2023-02-16T08:26:00.315Z,6.72
2023-02-16T08:28:31.380Z,6.77
2023-02-16T08:31:06.156Z,6.79
2023-02-16T08:33:38.241Z,6.85
2023-02-16T08:36:19.228Z,6.90
2023-02-16T08:38:50.936Z,6.92
2023-02-16T08:41:21.471Z,6.95
2023-02-16T08:43:52.462Z,6.97
2023-02-16T08:46:23.037Z,7.02
2023-02-16T08:48:55.530Z,7.06
2023-02-16T08:51:29.037Z,7.15
2023-02-16T08:54:02.356Z,7.23
2023-02-16T08:56:34.567Z,7.33
2023-02-16T08:59:04.568Z,7.37
2023-02-16T09:01:34.341Z,7.45
2023-02-16T09:04:04.186Z,7.50
2023-02-16T09:06:40.101Z,7.56
2023-02-16T09:09:11.349Z,7.62
2023-02-16T09:11:41.186Z,7.69
2023-02-16T09:14:11.295Z,7.76
2023-02-16T09:16:45.796Z,7.85
2023-02-16T09:19:17.649Z,7.94
2023-02-16T09:21:51.281Z,8.04
2023-02-16T09:24:22.067Z,8.21
2023-02-16T09:26:52.175Z,8.33
2023-02-16T09:29:22.034Z,8.37
2023-02-16T09:31:52.785Z,8.44
2023-02-16T09:34:25.685Z,8.49
2023-02-16T09:36:59.327Z,8.52
2023-02-16T09:39:29.224Z,8.56
2023-02-16T09:42:06.789Z,8.56
2023-02-16T09:44:46.802Z,8.57
2023-02-16T09:47:24.188Z,8.62
2023-02-16T09:49:56.993Z,8.69
2023-02-16T09:52:37.676Z,8.72
2023-02-16T09:55:10.850Z,8.79
2023-02-16T09:57:54.769Z,8.79
2023-02-16T10:00:32.222Z,8.78
2023-02-16T10:03:12.263Z,8.79
2023-02-16T10:05:50.692Z,8.77
2023-02-16T10:08:30.140Z,8.76
2023-02-16T10:11:28.427Z,8.78
2023-02-16T10:14:03.005Z,8.80
2023-02-16T10:16:39.850Z,8.81
2023-02-16T10:19:18.432Z,8.81
2023-02-16T10:21:53.050Z,8.82
2023-02-16T10:24:26.949Z,8.85
2023-02-16T10:27:07.579Z,8.86
2023-02-16T10:29:37.573Z,8.89
2023-02-16T10:32:18.015Z,8.92
2023-02-16T10:34:52.533Z,8.94
2023-02-16T10:37:41.098Z,8.97
2023-02-16T10:40:26.246Z,8.97
2023-02-16T10:43:01.508Z,9.05
2023-02-16T10:45:37.034Z,9.14
2023-02-16T10:48:08.578Z,9.21
2023-02-16T10:50:43.780Z,9.28
2023-02-16T10:53:21.653Z,9.36
2023-02-16T10:55:54.521Z,9.43
2023-02-16T10:58:29.398Z,9.46
2023-02-16T11:01:04.428Z,9.55
2023-02-16T11:03:39.434Z,9.61
2023-02-16T11:06:18.137Z,9.64
2023-02-16T11:08:54.312Z,9.73
2023-02-16T11:11:28.256Z,9.78
2023-02-16T11:14:02.808Z,9.82
2023-02-16T11:16:34.034Z,9.85
2023-02-16T11:19:08.905Z,9.88
2023-02-16T11:21:50.413Z,9.88
2023-02-16T11:24:29.121Z,9.92
2023-02-16T11:27:09.842Z,9.90
2023-02-16T11:29:39.893Z,9.97
2023-02-16T11:32:11.439Z,10.01
2023-02-16T11:34:45.776Z,10.01
2023-02-16T11:37:31.127Z,10.00
2023-02-16T11:40:04.271Z,10.07
2023-02-16T11:42:44.036Z,10.09
2023-02-16T11:45:31.254Z,10.08
2023-02-16T11:48:05.898Z,10.11
2023-02-16T11:50:38.800Z,10.15
2023-02-16T11:53:18.862Z,10.09
2023-02-16T11:55:53.153Z,10.17
2023-02-16T11:58:27.980Z,10.13
2023-02-16T12:01:11.829Z,10.19
2023-02-16T12:04:06.481Z,10.21
2023-02-16T12:06:52.404Z,10.31
2023-02-16T12:09:31.208Z,10.34
2023-02-16T12:12:09.371Z,10.35
2023-02-16T12:14:57.358Z,10.28
2023-02-16T12:17:38.020Z,10.37
2023-02-16T12:20:20.919Z,10.41
2023-02-16T12:22:52.229Z,10.45
2023-02-16T12:25:33.517Z,10.46
2023-02-16T12:28:13.529Z,10.51
2023-02-16T12:30:55.362Z,10.38
2023-02-16T12:33:38.041Z,10.50
2023-02-16T12:36:27.438Z,10.55
2023-02-16T12:39:05.743Z,10.65
2023-02-16T12:41:47.433Z,10.67
2023-02-16T12:44:20.763Z,10.71
2023-02-16T12:47:02.055Z,10.77
2023-02-16T12:49:38.497Z,10.86
2023-02-16T12:52:14.059Z,10.96
2023-02-16T12:54:48.372Z,11.00
2023-02-16T12:57:20.598Z,11.05
2023-02-16T12:59:55.635Z,11.05
2023-02-16T13:02:34.659Z,10.98
2023-02-16T13:05:10.322Z,10.99
2023-02-16T13:07:43.659Z,10.95
2023-02-16T13:10:21.411Z,10.93
2023-02-16T13:12:56.915Z,10.95
2023-02-16T13:15:34.637Z,10.93
2023-02-16T13:18:13.618Z,10.94
2023-02-16T13:20:47.400Z,10.98
2023-02-16T13:23:40.184Z,10.96
2023-02-16T13:26:29.342Z,10.98
2023-02-16T13:29:29.516Z,11.00
2023-02-16T13:35:17.460Z,11.03
2023-02-16T13:38:09.257Z,11.03
2023-02-16T13:41:14.830Z,11.04
2023-02-16T13:43:48.599Z,11.06
2023-02-16T13:46:26.496Z,11.07
2023-02-16T13:48:56.824Z,11.08
2023-02-16T13:51:32.389Z,11.07
2023-02-16T13:54:04.850Z,11.11
2023-02-16T13:56:38.487Z,11.12
2023-02-16T13:59:58.515Z,11.04
2023-02-16T14:02:57.314Z,11.01
2023-02-16T14:05:34.381Z,11.04
2023-02-16T14:08:23.660Z,10.94
2023-02-16T14:11:13.738Z,10.87
2023-02-16T14:13:50.023Z,10.89
2023-02-16T14:16:37.170Z,10.87
2023-02-16T14:19:20.684Z,10.97
2023-02-16T14:21:52.085Z,10.98
2023-02-16T14:24:38.146Z,10.92
2023-02-16T14:27:10.130Z,10.98
2023-02-16T14:29:43.582Z,10.98
2023-02-16T14:32:26.509Z,10.97
2023-02-16T14:35:00.606Z,11.08
2023-02-16T14:37:34.678Z,11.18
2023-02-16T14:40:21.132Z,11.19
2023-02-16T14:42:59.995Z,11.25
2023-02-16T14:45:57.300Z,11.28
2023-02-16T14:48:47.808Z,11.26
2023-02-16T14:51:41.111Z,11.27
2023-02-16T14:54:41.454Z,11.26
2023-02-16T14:57:17.507Z,11.34
2023-02-16T14:59:54.369Z,11.35
2023-02-16T15:02:33.943Z,11.37
2023-02-16T15:05:19.088Z,11.35
2023-02-16T15:07:53.390Z,11.38
2023-02-16T15:10:29.535Z,11.39
2023-02-16T15:13:02.474Z,11.42
2023-02-16T15:15:43.675Z,11.44
2023-02-16T15:18:19.301Z,11.43
2023-02-16T15:20:51.696Z,11.44
2023-02-16T15:23:23.766Z,11.47
2023-02-16T15:26:00.164Z,11.49
2023-02-16T15:28:33.995Z,11.53
2023-02-16T15:31:08.438Z,11.58
2023-02-16T15:33:40.452Z,11.62
2023-02-16T15:36:14.414Z,11.61
2023-02-16T15:38:57.406Z,11.62
2023-02-16T15:41:32.756Z,11.62
2023-02-16T15:44:07.781Z,11.60
2023-02-16T15:46:40.056Z,11.62
2023-02-16T15:49:16.113Z,11.61
2023-02-16T15:51:45.997Z,11.65
2023-02-16T15:54:26.983Z,11.62
2023-02-16T15:56:58.377Z,11.65
2023-02-16T15:59:37.693Z,11.63
2023-02-16T16:02:15.705Z,11.65
2023-02-16T16:04:48.482Z,11.64
2023-02-16T16:07:21.790Z,11.63
2023-02-16T16:09:51.931Z,11.61
2023-02-16T16:12:23.862Z,11.61
2023-02-16T16:14:58.796Z,11.62
2023-02-16T16:17:33.955Z,11.62
2023-02-16T16:20:29.205Z,11.60
2023-02-16T16:23:00.589Z,11.63
2023-02-16T16:25:42.983Z,11.57
2023-02-16T16:28:16.283Z,11.60
2023-02-16T16:30:48.764Z,11.57
2023-02-16T16:33:19.118Z,11.58
2023-02-16T16:35:50.746Z,11.58
2023-02-16T16:38:29.071Z,11.58
2023-02-16T16:41:01.308Z,11.62
2023-02-16T16:43:33.508Z,11.63
2023-02-16T16:46:22.610Z,11.60
2023-02-16T16:48:55.088Z,11.68
2023-02-16T16:51:40.819Z,11.65
2023-02-16T16:54:14.846Z,11.67
2023-02-16T16:56:44.965Z,11.66
2023-02-16T16:59:14.790Z,11.66
2023-02-16T17:01:50.447Z,11.64
2023-02-16T17:04:22.204Z,11.64
2023-02-16T17:06:52.006Z,11.63
2023-02-16T17:09:21.783Z,11.62
2023-02-16T17:11:54.582Z,11.64
2023-02-16T17:14:27.003Z,11.64
2023-02-16T17:17:00.114Z,11.62
2023-02-16T17:19:31.097Z,11.65
2023-02-16T17:22:00.945Z,11.65
2023-02-16T17:24:30.828Z,11.67
2023-02-16T17:27:00.717Z,11.67
2023-02-16T17:29:30.493Z,11.67
2023-02-16T17:32:03.268Z,11.68
2023-02-16T17:34:33.172Z,11.71
2023-02-16T17:37:07.430Z,11.71
2023-02-16T17:39:38.622Z,11.73
2023-02-16T17:42:13.068Z,11.75
2023-02-16T17:44:42.875Z,11.75
2023-02-16T17:47:18.155Z,11.76
2023-02-16T17:49:47.982Z,11.78
2023-02-16T17:52:17.857Z,11.79
2023-02-16T17:54:47.723Z,11.80
2023-02-16T17:57:17.594Z,11.81
2023-02-16T17:59:47.430Z,11.84
2023-02-16T18:02:19.974Z,11.84
2023-02-16T18:04:49.835Z,11.85
2023-02-16T18:07:20.319Z,11.87
2023-02-16T18:09:52.486Z,11.87
2023-02-16T18:12:22.517Z,11.88
2023-02-16T18:14:52.254Z,11.89
2023-02-16T18:17:24.737Z,11.87
2023-02-16T18:19:54.544Z,11.81
2023-02-16T18:22:24.464Z,11.81
2023-02-16T18:24:54.366Z,11.79
2023-02-16T18:27:28.020Z,11.81
2023-02-16T18:29:59.245Z,11.81
2023-02-16T18:32:32.147Z,11.80
2023-02-16T18:35:01.978Z,11.81
2023-02-16T18:37:32.049Z,11.80
2023-02-16T18:40:01.870Z,11.81
2023-02-16T18:42:31.688Z,11.81
2023-02-16T18:45:01.716Z,11.81
2023-02-16T18:47:34.774Z,11.80
2023-02-16T18:50:04.602Z,11.71
2023-02-16T18:52:34.417Z,11.76
2023-02-16T18:55:04.330Z,11.78
2023-02-16T18:57:34.238Z,11.78
2023-02-16T19:00:04.537Z,11.77
2023-02-16T19:02:37.433Z,11.75
2023-02-16T19:05:08.055Z,11.74
2023-02-16T19:07:37.988Z,11.75
2023-02-16T19:10:10.833Z,11.75
2023-02-16T19:12:40.948Z,11.75
2023-02-16T19:15:12.108Z,11.71
2023-02-16T19:17:44.633Z,11.71
2023-02-16T19:20:18.340Z,11.66
2023-02-16T19:22:48.432Z,11.62
2023-02-16T19:25:19.156Z,11.63
2023-02-16T19:27:48.984Z,11.62
2023-02-16T19:30:21.704Z,11.63
2023-02-16T19:32:54.839Z,11.64
2023-02-16T19:35:24.772Z,11.65
2023-02-16T19:37:54.699Z,11.65
2023-02-16T19:40:25.990Z,11.61
2023-02-16T19:42:55.876Z,11.61
2023-02-16T19:45:25.730Z,11.63
2023-02-16T19:47:58.261Z,11.61
2023-02-16T19:50:28.084Z,11.61
2023-02-16T19:52:57.906Z,11.60
2023-02-16T19:55:27.853Z,11.62
2023-02-16T19:57:57.702Z,11.62
2023-02-16T20:00:28.233Z,11.61
2023-02-16T20:03:00.883Z,11.59
2023-02-16T20:05:31.039Z,11.57
2023-02-16T20:08:00.827Z,11.52
2023-02-16T20:10:34.114Z,11.50
2023-02-16T20:13:05.598Z,11.48
2023-02-16T20:15:38.215Z,11.44
2023-02-16T20:18:10.655Z,11.43
2023-02-16T20:20:40.459Z,11.41
2023-02-16T20:23:10.297Z,11.40
2023-02-16T20:25:42.359Z,11.36
2023-02-16T20:28:12.163Z,11.33
2023-02-16T20:30:41.969Z,11.37
2023-02-16T20:33:14.963Z,11.36
2023-02-16T20:35:44.998Z,11.35
2023-02-16T20:38:15.075Z,11.36
2023-02-16T20:40:45.116Z,11.34
2023-02-16T20:43:15.759Z,11.35
2023-02-16T20:45:45.542Z,11.38
2023-02-16T20:48:18.402Z,11.39
2023-02-16T20:50:48.250Z,11.37
2023-02-16T20:53:18.679Z,11.41
2023-02-16T20:55:48.548Z,11.40
2023-02-16T20:58:19.209Z,11.42
2023-02-16T21:00:50.911Z,11.43
2023-02-16T21:03:23.381Z,11.39
2023-02-16T21:05:53.286Z,11.41
2023-02-16T21:08:23.936Z,11.42
2023-02-16T21:10:54.047Z,11.39
2023-02-16T21:13:23.896Z,11.38
2023-02-16T21:15:53.798Z,11.40
2023-02-16T21:18:26.548Z,11.40
2023-02-16T21:20:56.281Z,11.41
2023-02-16T21:23:26.320Z,11.39
2023-02-16T21:26:00.599Z,11.41
2023-02-16T21:28:30.873Z,11.39
2023-02-16T21:31:06.134Z,11.40
2023-02-16T21:33:39.386Z,11.39
2023-02-16T21:36:11.528Z,11.41
2023-02-16T21:38:43.066Z,11.43
2023-02-16T21:41:24.970Z,11.46
2023-02-16T21:44:01.680Z,11.45
2023-02-16T21:46:33.798Z,11.48
2023-02-16T21:49:04.588Z,11.49
2023-02-16T21:51:37.833Z,11.49
2023-02-16T21:54:09.109Z,11.48
2023-02-16T21:56:39.289Z,11.47
2023-02-16T21:59:11.671Z,11.45
2023-02-16T22:01:43.319Z,11.45
2023-02-16T22:04:18.592Z,11.41
2023-02-16T22:06:50.891Z,11.44
2023-02-16T22:09:23.441Z,11.45
2023-02-16T22:11:54.127Z,11.47
2023-02-16T22:14:23.979Z,11.46
2023-02-16T22:16:53.874Z,11.47
2023-02-16T22:19:26.384Z,11.47
2023-02-16T22:21:56.128Z,11.46
2023-02-16T22:24:25.934Z,11.46
2023-02-16T22:26:55.794Z,11.45
2023-02-16T22:29:25.964Z,11.47
2023-02-16T22:31:55.814Z,11.48
2023-02-16T22:34:28.458Z,11.51
2023-02-16T22:36:58.462Z,11.51
2023-02-16T22:39:30.023Z,11.55
2023-02-16T22:42:01.221Z,11.58
2023-02-16T22:44:31.139Z,11.57
2023-02-16T22:47:00.924Z,11.57
2023-02-16T22:49:33.488Z,11.58
2023-02-16T22:52:03.528Z,11.58
2023-02-16T22:54:33.289Z,11.59
2023-02-16T22:57:07.302Z,11.58
2023-02-16T22:59:37.252Z,11.58
2023-02-16T23:02:07.028Z,11.57
2023-02-16T23:04:41.753Z,11.56
2023-02-16T23:07:13.142Z,11.57
2023-02-16T23:09:43.006Z,11.57
2023-02-16T23:12:13.346Z,11.59
2023-02-16T23:14:43.451Z,11.61
2023-02-16T23:17:13.271Z,11.63
2023-02-16T23:19:45.982Z,11.65
2023-02-16T23:22:17.085Z,11.66
2023-02-16T23:25:06.897Z,11.68
2023-02-16T23:27:39.013Z,11.70
2023-02-16T23:30:12.852Z,11.72
2023-02-16T23:32:43.161Z,11.72
2023-02-16T23:35:15.912Z,11.72
2023-02-16T23:37:48.603Z,11.73
2023-02-16T23:40:18.484Z,11.75
2023-02-16T23:42:48.320Z,11.73
2023-02-16T23:45:18.298Z,11.72
2023-02-16T23:47:48.118Z,11.73
2023-02-16T23:50:23.171Z,11.70
2023-02-16T23:52:54.167Z,11.70
2023-02-16T23:55:24.148Z,11.70
2023-02-16T23:57:54.130Z,11.71
